• Join FlightAware (Why Join?)
  • Login
  • US Flag 
08:13PM EDT


 

Airport Tracker/Info


-or-


 

Live Flight TrackerFlight Track Log ✈ DAL268 ✈ 05-Jun-2013 ✈ KATL - KJFK

Flight Track Log - Related Links

Times and Time Zones

All times are in EDT time to prevent confusion due to time zone crossing. See the DAL268 flight status page for this flight to view local times or setup timezone preferences in your user account.

Time Position Orientation Groundspeed Altitude Reporting Facility
EDT Latitude Longitude Course Direction KTS MPH feet Rate Location/Type
08:56PM 33.6333 -84.3833 64° Northeast 177 204 2,600  Level Atlanta TRACON
08:57PM 33.6333 -84.3000 90° East 252 290 4,500 2,280 Climbing Atlanta TRACON
08:58PM 33.6333 -84.2167 90° East 273 314 7,200 2,460 Climbing Atlanta TRACON
08:59PM 33.6356 -84.1061 89° East 329 379 9,900 1,980 Climbing Atlanta Center
09:00PM 33.6606 -83.6966 101° East  Level FlightAware Approximate
09:00PM 33.6378 -84.0014 89° East 324 373 11,700  Level Atlanta Center
09:01PM 33.6806 -83.5585 64° Northeast  Level FlightAware Approximate
09:01PM 33.6439 -83.8792 87° East 339 390 13,300  Level Atlanta Center
09:02PM 33.6500 -83.7494 87° East 370 426 14,900 1,620 Climbing Atlanta Center
09:03PM 33.6661 -83.6194 81° East 393 452 16,600 1,440 Climbing Atlanta Center
09:04PM 33.7178 -83.4944 64° Northeast 393 452 17,800 1,200 Climbing Atlanta Center
09:05PM 33.7736 -83.3567 64° Northeast 417 480 19,100 1,620 Climbing Atlanta Center
09:06PM 33.8292 -83.2161 65° Northeast 457 526 21,100 1,860 Climbing Atlanta Center
09:07PM 33.8864 -83.0728 64° Northeast 468 539 22,900 1,500 Climbing Atlanta Center
09:08PM 33.9397 -82.9419 64° Northeast 473 544 24,100 1,320 Climbing Atlanta Center
09:09PM 33.9989 -82.7961 64° Northeast 473 544 25,600 1,200 Climbing Atlanta Center
09:10PM 34.0597 -82.6472 64° Northeast 485 558 26,500 1,140 Climbing Atlanta Center
09:11PM 34.1267 -82.4781 64° Northeast 496 571 27,900 1,740 Climbing Atlanta Center
09:12PM 34.1769 -82.3464 65° Northeast 491 565 30,000 1,680 Climbing Atlanta Center
09:13PM 34.2333 -82.1994 65° Northeast 486 559 31,300 960 Climbing Atlanta Center
09:14PM 34.3000 -82.0572 60° Northeast 481 554 32,000 720 Climbing Atlanta Center
09:15PM 34.3686 -81.9172 59° Northeast 481 554 32,800 480 Climbing Atlanta Center
09:16PM 34.4392 -81.7794 58° Northeast 481 554 33,000 60 Climbing Atlanta Center
09:17PM 34.5075 -81.6392 59° Northeast 481 554 33,000  Level Atlanta Center
09:18PM 34.5797 -81.4983 58° Northeast 476 548 33,000  Level Atlanta Center
09:19PM 34.6539 -81.3519 58° Northeast 476 548 33,000  Level Atlanta Center
09:20PM 34.7136 -81.2239 60° Northeast 469 540 33,000  Level Atlanta Center
09:21PM 34.7814 -81.0850 59° Northeast 476 548 33,000  Level Atlanta Center
09:22PM 34.8450 -80.9561 59° Northeast 465 535 33,000  Level Atlanta Center
09:24PM 34.9614 -80.7114 60° Northeast 475 547 33,000  Level Washington Center
09:25PM 35.0300 -80.5711 59° Northeast 475 547 33,000  Level Washington Center
09:26PM 35.0983 -80.4281 60° Northeast 475 547 33,000  Level Washington Center
09:27PM 35.1644 -80.2872 60° Northeast 469 540 33,000  Level Washington Center
09:28PM 35.2306 -80.1461 60° Northeast 474 545 33,000  Level Washington Center
09:29PM 35.2842 -79.9989 66° East 469 540 33,000  Level Washington Center
09:30PM 35.3314 -79.8439 69° East 469 540 33,000  Level Washington Center
09:31PM 35.3786 -79.6908 69° East 474 545 33,000  Level Washington Center
09:32PM 35.4275 -79.5353 69° East 479 551 33,000  Level Washington Center
09:33PM 35.4825 -79.3850 66° East 479 551 33,000  Level Washington Center
09:34PM 35.5428 -79.2603 59° Northeast 479 551 33,000  Level Washington Center
09:35PM 35.6142 -79.1075 60° Northeast 472 543 33,000  Level Washington Center
09:36PM 35.6808 -78.9647 60° Northeast 472 543 33,000  Level Washington Center
09:37PM 35.7475 -78.8219 60° Northeast 472 543 33,000  Level Washington Center
09:38PM 35.8158 -78.6761 60° Northeast 472 543 33,000  Level Washington Center
09:39PM 35.8778 -78.5350 62° Northeast 472 543 33,000  Level Washington Center
09:40PM 35.9419 -78.3911 61° Northeast 472 543 33,000  Level Washington Center
09:41PM 36.0078 -78.2469 61° Northeast 472 543 33,000  Level Washington Center
09:42PM 36.0714 -78.1028 61° Northeast 472 543 33,000  Level Washington Center
09:43PM 36.1347 -77.9556 62° Northeast 472 543 33,000  Level Washington Center
09:44PM 36.2003 -77.8108 61° Northeast 472 543 33,000  Level Washington Center
09:45PM 36.2653 -77.6683 60° Northeast 472 543 33,000  Level Washington Center
09:46PM 36.3283 -77.5178 62° Northeast 472 543 33,000  Level Washington Center
09:47PM 36.3825 -77.3875 63° Northeast 472 543 33,000  Level Washington Center
09:48PM 36.4472 -77.2394 61° Northeast 472 543 33,000  Level Washington Center
09:49PM 36.5203 -77.0781 61° Northeast 472 543 33,000  Level Washington Center
09:50PM 36.5931 -76.9347 58° Northeast 478 550 33,000  Level Washington Center
09:51PM 36.6922 -76.8222 42° Northeast 473 544 33,000  Level Washington Center
09:52PM 36.7975 -76.7228 37° Northeast 468 539 33,000  Level Washington Center
09:53PM 36.9006 -76.6178 39° Northeast 468 539 33,000  Level Washington Center
09:54PM 37.0036 -76.5153 38° Northeast 468 539 33,000  Level Washington Center
09:55PM 37.1086 -76.4122 38° Northeast 468 539 33,000  Level Washington Center
09:56PM 37.2094 -76.3117 38° Northeast 468 539 33,000  Level Washington Center
09:57PM 37.3122 -76.2108 38° Northeast 468 539 33,000  Level Washington Center
09:58PM 37.4108 -76.1200 36° Northeast 468 539 33,000  Level Washington Center
09:59PM 37.5114 -76.0186 39° Northeast 468 539 33,000  Level Washington Center
10:00PM 37.6139 -75.9169 38° Northeast 468 539 33,000 -60 Level Washington Center
10:01PM 37.7142 -75.8150 39° Northeast 468 539 32,900  Descending Washington Center
10:02PM 37.8144 -75.7128 39° Northeast 468 539 33,000  Climbing Washington Center
10:03PM 37.9125 -75.6128 39° Northeast 468 539 33,000  Level Washington Center
10:04PM 38.0125 -75.5128 38° Northeast 462 532 33,000  Level Washington Center
10:05PM 38.1167 -75.4256 33° Northeast 462 532 33,000  Level Washington Center
10:06PM 38.2292 -75.3592 25° Northeast 450 518 33,000 -360 Level Washington Center
10:07PM 38.3519 -75.2792 27° Northeast 437 503 32,300 -1,380 Descending Washington Center
10:08PM 38.4664 -75.2019 28° Northeast 443 510 30,300 -2,040 Descending Washington Center
10:09PM 38.5831 -75.1350 24° Northeast 448 516 28,300 -1,680 Descending Washington Center
10:10PM 38.7036 -75.0517 28° Northeast 469 540 27,000 -720 Descending Washington Center
10:11PM 38.8242 -74.9761 26° Northeast 474 545 27,000 -60 Level Washington Center
10:12PM 38.9467 -74.8950 27° Northeast 479 551 26,900  Descending Washington Center
10:13PM 39.0692 -74.8164 26° Northeast 479 551 27,000 -420 Climbing Washington Center
10:14PM 39.1767 -74.7133 37° Northeast 484 557 26,100 -1,080 Descending Washington Center
10:15PM 39.2822 -74.5969 40° Northeast 484 557 24,900 -1,740 Descending Washington Center
10:17PM 39.4594 -74.4036 40° Northeast 464 534 21,200 -2,160 Descending New York Center
10:18PM 39.5544 -74.2981 41° Northeast 458 527 18,900 -2,220 Descending New York Center
10:19PM 39.6536 -74.1869 41° Northeast 439 505 16,800 -1,920 Descending New York Center
10:20PM 39.7439 -74.0889 40° Northeast 426 490 15,100 -1,560 Descending New York Center
10:21PM 39.8233 -74.0033 40° Northeast 417 480 13,700 -1,320 Descending New York Center
10:22PM 39.9108 -73.9317 32° Northeast 388 447 12,500 -1,320 Descending New York Center
10:23PM 40.0042 -73.8683 27° Northeast 350 403 11,100 -840 Descending New York Center
10:24PM 40.0764 -73.8172 28° Northeast 320 368 10,900 -960 Descending New York Center
10:25PM 40.1500 -73.7833 19° North 298 343 9,300 -1,680 Descending New York TRACON
10:26PM 40.2167 -73.8333 330° Northwest 286 329 7,700 -1,620 Descending New York TRACON
10:27PM 40.3000 -73.9000 329° Northwest 281 323 5,900 -1,500 Descending New York TRACON
10:28PM 40.3500 -73.9333 333° Northwest 268 308 4,800 -1,440 Descending New York TRACON
10:29PM 40.4200 -73.9878 329° Northwest 266 306 3,100 -900 Descending New York Center
10:30PM 40.4767 -73.9742 10° North 221 254 3,000 -60 Descending New York Center
10:31PM 40.5333 -73.9667 North 186 214 3,000 -540 Level New York TRACON
10:32PM 40.5667 -73.9167 49° Northeast 185 213 2,000 -1,020 Descending New York TRACON